sensor_id;sensor_type;location;lat;lon;timestamp;temperature;humidity
11491;DHT22;5802;52.832;4.758;2023-04-24T00:00:48;24.00;44.00
11491;DHT22;5802;52.832;4.758;2023-04-24T00:03:16;24.00;43.90
11491;DHT22;5802;52.832;4.758;2023-04-24T00:05:46;24.00;44.00
11491;DHT22;5802;52.832;4.758;2023-04-24T00:08:13;23.90;43.90
11491;DHT22;5802;52.832;4.758;2023-04-24T00:10:41;24.00;43.90
11491;DHT22;5802;52.832;4.758;2023-04-24T00:13:08;24.00;44.00
11491;DHT22;5802;52.832;4.758;2023-04-24T00:15:35;24.00;44.00
11491;DHT22;5802;52.832;4.758;2023-04-24T00:18:02;23.90;43.90
11491;DHT22;5802;52.832;4.758;2023-04-24T00:20:28;23.90;43.90
11491;DHT22;5802;52.832;4.758;2023-04-24T00:22:58;23.90;43.90
11491;DHT22;5802;52.832;4.758;2023-04-24T00:25:25;23.90;43.90
11491;DHT22;5802;52.832;4.758;2023-04-24T00:27:53;24.00;43.90
11491;DHT22;5802;52.832;4.758;2023-04-24T00:30:20;23.90;43.90
11491;DHT22;5802;52.832;4.758;2023-04-24T00:32:47;23.90;43.90
11491;DHT22;5802;52.832;4.758;2023-04-24T00:35:13;23.90;43.90
11491;DHT22;5802;52.832;4.758;2023-04-24T00:37:40;23.90;43.90
11491;DHT22;5802;52.832;4.758;2023-04-24T00:40:08;23.90;43.90
11491;DHT22;5802;52.832;4.758;2023-04-24T00:42:35;23.90;43.90
11491;DHT22;5802;52.832;4.758;2023-04-24T00:45:04;23.90;43.90
11491;DHT22;5802;52.832;4.758;2023-04-24T00:47:33;23.90;43.90
11491;DHT22;5802;52.832;4.758;2023-04-24T00:50:01;23.90;43.90
11491;DHT22;5802;52.832;4.758;2023-04-24T00:52:28;23.90;43.90
11491;DHT22;5802;52.832;4.758;2023-04-24T00:54:56;23.90;44.00
11491;DHT22;5802;52.832;4.758;2023-04-24T00:57:23;23.90;43.90
11491;DHT22;5802;52.832;4.758;2023-04-24T00:59:51;23.90;44.00
11491;DHT22;5802;52.832;4.758;2023-04-24T01:02:20;24.00;44.10
11491;DHT22;5802;52.832;4.758;2023-04-24T01:04:48;23.90;43.90
11491;DHT22;5802;52.832;4.758;2023-04-24T01:07:16;23.90;43.90
11491;DHT22;5802;52.832;4.758;2023-04-24T01:09:44;23.90;43.90
11491;DHT22;5802;52.832;4.758;2023-04-24T01:12:12;23.90;44.00
11491;DHT22;5802;52.832;4.758;2023-04-24T01:14:39;24.00;44.00
11491;DHT22;5802;52.832;4.758;2023-04-24T01:17:06;24.00;44.00
11491;DHT22;5802;52.832;4.758;2023-04-24T01:19:35;24.00;44.00
11491;DHT22;5802;52.832;4.758;2023-04-24T01:22:03;24.00;44.00
11491;DHT22;5802;52.832;4.758;2023-04-24T01:24:31;24.00;44.00
11491;DHT22;5802;52.832;4.758;2023-04-24T01:26:58;24.00;44.00
11491;DHT22;5802;52.832;4.758;2023-04-24T01:29:26;24.00;44.00
11491;DHT22;5802;52.832;4.758;2023-04-24T01:31:53;24.00;43.90
11491;DHT22;5802;52.832;4.758;2023-04-24T01:34:21;24.00;43.90
11491;DHT22;5802;52.832;4.758;2023-04-24T01:36:48;24.00;43.90
11491;DHT22;5802;52.832;4.758;2023-04-24T01:39:15;24.00;43.90
11491;DHT22;5802;52.832;4.758;2023-04-24T01:41:43;24.00;43.90
11491;DHT22;5802;52.832;4.758;2023-04-24T01:44:10;24.00;43.90
11491;DHT22;5802;52.832;4.758;2023-04-24T01:46:37;24.00;43.80
11491;DHT22;5802;52.832;4.758;2023-04-24T01:49:04;24.00;43.90
11491;DHT22;5802;52.832;4.758;2023-04-24T01:51:31;24.00;43.80
11491;DHT22;5802;52.832;4.758;2023-04-24T01:53:57;24.00;43.80
11491;DHT22;5802;52.832;4.758;2023-04-24T01:56:24;24.00;43.80
11491;DHT22;5802;52.832;4.758;2023-04-24T01:58:54;24.00;43.80
11491;DHT22;5802;52.832;4.758;2023-04-24T02:01:21;24.00;43.80
11491;DHT22;5802;52.832;4.758;2023-04-24T02:03:49;24.00;43.80
11491;DHT22;5802;52.832;4.758;2023-04-24T02:06:16;24.00;43.70
11491;DHT22;5802;52.832;4.758;2023-04-24T02:08:43;24.00;43.80
11491;DHT22;5802;52.832;4.758;2023-04-24T02:11:10;24.00;43.80
11491;DHT22;5802;52.832;4.758;2023-04-24T02:13:37;24.00;43.80
11491;DHT22;5802;52.832;4.758;2023-04-24T02:16:05;24.00;43.70
11491;DHT22;5802;52.832;4.758;2023-04-24T02:18:31;24.00;43.70
11491;DHT22;5802;52.832;4.758;2023-04-24T02:20:58;24.00;43.70
11491;DHT22;5802;52.832;4.758;2023-04-24T02:23:25;24.00;43.70
11491;DHT22;5802;52.832;4.758;2023-04-24T02:25:52;24.00;43.70
11491;DHT22;5802;52.832;4.758;2023-04-24T02:28:19;24.00;43.70
11491;DHT22;5802;52.832;4.758;2023-04-24T02:30:46;24.00;43.70
11491;DHT22;5802;52.832;4.758;2023-04-24T02:33:14;24.00;43.70
11491;DHT22;5802;52.832;4.758;2023-04-24T02:35:41;24.00;43.70
11491;DHT22;5802;52.832;4.758;2023-04-24T02:38:07;24.00;43.70
11491;DHT22;5802;52.832;4.758;2023-04-24T02:40:34;24.00;43.70
11491;DHT22;5802;52.832;4.758;2023-04-24T02:43:01;24.00;43.70
11491;DHT22;5802;52.832;4.758;2023-04-24T02:45:27;24.00;43.60
11491;DHT22;5802;52.832;4.758;2023-04-24T02:47:54;24.00;43.70
11491;DHT22;5802;52.832;4.758;2023-04-24T02:50:22;24.00;43.70
11491;DHT22;5802;52.832;4.758;2023-04-24T02:52:49;24.00;43.70
11491;DHT22;5802;52.832;4.758;2023-04-24T02:55:16;24.00;43.70
11491;DHT22;5802;52.832;4.758;2023-04-24T02:57:42;24.00;43.70
11491;DHT22;5802;52.832;4.758;2023-04-24T03:00:10;24.00;43.70
11491;DHT22;5802;52.832;4.758;2023-04-24T03:02:37;24.00;43.60
11491;DHT22;5802;52.832;4.758;2023-04-24T03:05:04;24.00;43.60
11491;DHT22;5802;52.832;4.758;2023-04-24T03:07:32;24.00;43.60
11491;DHT22;5802;52.832;4.758;2023-04-24T03:09:59;24.00;43.60
11491;DHT22;5802;52.832;4.758;2023-04-24T03:12:26;24.00;43.60
11491;DHT22;5802;52.832;4.758;2023-04-24T03:14:52;24.00;43.60
11491;DHT22;5802;52.832;4.758;2023-04-24T03:17:19;24.00;43.60
11491;DHT22;5802;52.832;4.758;2023-04-24T03:19:46;23.90;43.60
11491;DHT22;5802;52.832;4.758;2023-04-24T03:22:13;24.00;43.60
11491;DHT22;5802;52.832;4.758;2023-04-24T03:24:41;24.00;43.60
11491;DHT22;5802;52.832;4.758;2023-04-24T03:27:07;24.00;43.60
11491;DHT22;5802;52.832;4.758;2023-04-24T03:29:34;24.00;43.60
11491;DHT22;5802;52.832;4.758;2023-04-24T03:32:01;24.00;43.60
11491;DHT22;5802;52.832;4.758;2023-04-24T03:34:27;24.00;43.60
11491;DHT22;5802;52.832;4.758;2023-04-24T03:36:54;24.00;43.60
11491;DHT22;5802;52.832;4.758;2023-04-24T03:39:21;24.00;43.60
11491;DHT22;5802;52.832;4.758;2023-04-24T03:41:49;24.00;43.60
11491;DHT22;5802;52.832;4.758;2023-04-24T03:44:15;24.00;43.60
11491;DHT22;5802;52.832;4.758;2023-04-24T03:46:42;23.90;44.20
11491;DHT22;5802;52.832;4.758;2023-04-24T03:49:09;23.90;43.50
11491;DHT22;5802;52.832;4.758;2023-04-24T03:51:35;23.90;43.40
11491;DHT22;5802;52.832;4.758;2023-04-24T03:54:02;24.00;43.60
11491;DHT22;5802;52.832;4.758;2023-04-24T03:56:29;23.90;43.40
11491;DHT22;5802;52.832;4.758;2023-04-24T03:58:57;23.90;43.50
11491;DHT22;5802;52.832;4.758;2023-04-24T04:01:23;23.90;43.50
11491;DHT22;5802;52.832;4.758;2023-04-24T04:03:51;23.90;43.40
11491;DHT22;5802;52.832;4.758;2023-04-24T04:06:18;23.90;43.50
11491;DHT22;5802;52.832;4.758;2023-04-24T04:08:44;23.90;43.40
11491;DHT22;5802;52.832;4.758;2023-04-24T04:11:11;23.90;43.50
11491;DHT22;5802;52.832;4.758;2023-04-24T04:13:38;23.90;43.40
11491;DHT22;5802;52.832;4.758;2023-04-24T04:16:06;23.90;43.40
11491;DHT22;5802;52.832;4.758;2023-04-24T04:18:33;23.90;43.40
11491;DHT22;5802;52.832;4.758;2023-04-24T04:20:59;23.90;43.50
11491;DHT22;5802;52.832;4.758;2023-04-24T04:23:26;23.90;43.40
11491;DHT22;5802;52.832;4.758;2023-04-24T04:25:53;23.90;43.50
11491;DHT22;5802;52.832;4.758;2023-04-24T04:28:20;23.90;43.40
11491;DHT22;5802;52.832;4.758;2023-04-24T04:30:47;23.90;43.40
11491;DHT22;5802;52.832;4.758;2023-04-24T04:33:15;23.90;43.40
11491;DHT22;5802;52.832;4.758;2023-04-24T04:35:41;23.90;43.40
11491;DHT22;5802;52.832;4.758;2023-04-24T04:38:08;23.90;43.40
11491;DHT22;5802;52.832;4.758;2023-04-24T04:40:36;23.90;43.40
11491;DHT22;5802;52.832;4.758;2023-04-24T04:43:02;23.90;43.40
11491;DHT22;5802;52.832;4.758;2023-04-24T04:45:29;23.90;43.40
11491;DHT22;5802;52.832;4.758;2023-04-24T04:47:56;23.90;43.40
11491;DHT22;5802;52.832;4.758;2023-04-24T04:50:24;23.90;43.80
11491;DHT22;5802;52.832;4.758;2023-04-24T04:52:50;23.90;43.40
11491;DHT22;5802;52.832;4.758;2023-04-24T04:55:17;23.90;43.40
11491;DHT22;5802;52.832;4.758;2023-04-24T04:57:45;23.90;43.40
11491;DHT22;5802;52.832;4.758;2023-04-24T05:00:12;23.90;43.50
11491;DHT22;5802;52.832;4.758;2023-04-24T05:02:39;23.90;44.00
11491;DHT22;5802;52.832;4.758;2023-04-24T05:05:07;23.90;43.40
11491;DHT22;5802;52.832;4.758;2023-04-24T05:07:35;23.90;43.40
11491;DHT22;5802;52.832;4.758;2023-04-24T05:10:02;23.90;43.40
11491;DHT22;5802;52.832;4.758;2023-04-24T05:12:29;23.90;43.40
11491;DHT22;5802;52.832;4.758;2023-04-24T05:14:56;23.90;43.30
11491;DHT22;5802;52.832;4.758;2023-04-24T05:17:22;23.90;43.30
11491;DHT22;5802;52.832;4.758;2023-04-24T05:19:49;23.90;43.30
11491;DHT22;5802;52.832;4.758;2023-04-24T05:22:16;23.90;43.30
11491;DHT22;5802;52.832;4.758;2023-04-24T05:24:45;23.90;43.30
11491;DHT22;5802;52.832;4.758;2023-04-24T05:27:12;23.90;43.30
11491;DHT22;5802;52.832;4.758;2023-04-24T05:29:39;23.90;43.30
11491;DHT22;5802;52.832;4.758;2023-04-24T05:32:06;23.90;43.30
11491;DHT22;5802;52.832;4.758;2023-04-24T05:34:33;23.90;43.30
11491;DHT22;5802;52.832;4.758;2023-04-24T05:37:00;23.90;43.30
11491;DHT22;5802;52.832;4.758;2023-04-24T05:39:27;23.90;43.20
11491;DHT22;5802;52.832;4.758;2023-04-24T05:41:55;23.90;43.20
11491;DHT22;5802;52.832;4.758;2023-04-24T05:44:23;23.90;43.10
11491;DHT22;5802;52.832;4.758;2023-04-24T05:46:50;23.90;43.10
11491;DHT22;5802;52.832;4.758;2023-04-24T05:49:16;23.90;43.10
11491;DHT22;5802;52.832;4.758;2023-04-24T05:51:43;23.90;43.10
11491;DHT22;5802;52.832;4.758;2023-04-24T05:54:10;23.90;43.10
11491;DHT22;5802;52.832;4.758;2023-04-24T05:56:37;23.90;43.00
11491;DHT22;5802;52.832;4.758;2023-04-24T05:59:05;24.00;43.10
11491;DHT22;5802;52.832;4.758;2023-04-24T06:01:32;24.00;43.10
11491;DHT22;5802;52.832;4.758;2023-04-24T06:03:59;24.00;43.10
11491;DHT22;5802;52.832;4.758;2023-04-24T06:06:26;24.00;43.10
11491;DHT22;5802;52.832;4.758;2023-04-24T06:08:54;24.00;43.00
11491;DHT22;5802;52.832;4.758;2023-04-24T06:11:21;24.00;43.10
11491;DHT22;5802;52.832;4.758;2023-04-24T06:13:48;24.00;43.10
11491;DHT22;5802;52.832;4.758;2023-04-24T06:16:16;24.00;43.00
11491;DHT22;5802;52.832;4.758;2023-04-24T06:18:42;24.00;43.00
11491;DHT22;5802;52.832;4.758;2023-04-24T06:21:10;24.00;43.10
11491;DHT22;5802;52.832;4.758;2023-04-24T06:23:37;24.00;43.00
11491;DHT22;5802;52.832;4.758;2023-04-24T06:26:04;24.00;42.90
11491;DHT22;5802;52.832;4.758;2023-04-24T06:28:31;24.00;42.90
11491;DHT22;5802;52.832;4.758;2023-04-24T06:30:57;24.00;42.90
11491;DHT22;5802;52.832;4.758;2023-04-24T06:33:25;24.00;42.90
11491;DHT22;5802;52.832;4.758;2023-04-24T06:35:52;24.00;42.90
11491;DHT22;5802;52.832;4.758;2023-04-24T06:38:18;24.00;42.90
11491;DHT22;5802;52.832;4.758;2023-04-24T06:40:45;24.10;43.00
11491;DHT22;5802;52.832;4.758;2023-04-24T06:43:12;24.10;42.90
11491;DHT22;5802;52.832;4.758;2023-04-24T06:45:40;24.10;42.90
11491;DHT22;5802;52.832;4.758;2023-04-24T06:48:08;24.10;42.90
11491;DHT22;5802;52.832;4.758;2023-04-24T06:50:51;24.10;42.80
11491;DHT22;5802;52.832;4.758;2023-04-24T06:53:18;24.10;42.80
11491;DHT22;5802;52.832;4.758;2023-04-24T06:55:45;24.10;42.80
11491;DHT22;5802;52.832;4.758;2023-04-24T06:58:12;24.10;42.80
11491;DHT22;5802;52.832;4.758;2023-04-24T07:00:39;24.10;42.80
11491;DHT22;5802;52.832;4.758;2023-04-24T07:03:06;24.10;42.80
11491;DHT22;5802;52.832;4.758;2023-04-24T07:05:33;24.10;42.80
11491;DHT22;5802;52.832;4.758;2023-04-24T07:08:01;24.10;42.80
11491;DHT22;5802;52.832;4.758;2023-04-24T07:10:29;24.10;42.80
11491;DHT22;5802;52.832;4.758;2023-04-24T07:12:56;24.10;42.80
11491;DHT22;5802;52.832;4.758;2023-04-24T07:15:23;24.10;42.80
11491;DHT22;5802;52.832;4.758;2023-04-24T07:17:49;24.10;42.80
11491;DHT22;5802;52.832;4.758;2023-04-24T07:20:16;24.10;42.70
11491;DHT22;5802;52.832;4.758;2023-04-24T07:22:43;24.10;42.80
11491;DHT22;5802;52.832;4.758;2023-04-24T07:25:11;24.10;42.80
11491;DHT22;5802;52.832;4.758;2023-04-24T07:27:38;24.10;42.80
11491;DHT22;5802;52.832;4.758;2023-04-24T07:30:06;24.10;42.80
11491;DHT22;5802;52.832;4.758;2023-04-24T07:32:32;24.10;42.80
11491;DHT22;5802;52.832;4.758;2023-04-24T07:34:59;24.10;42.80
11491;DHT22;5802;52.832;4.758;2023-04-24T07:37:26;24.10;42.80
11491;DHT22;5802;52.832;4.758;2023-04-24T07:39:52;24.10;42.70
11491;DHT22;5802;52.832;4.758;2023-04-24T07:42:20;24.10;42.70
11491;DHT22;5802;52.832;4.758;2023-04-24T07:44:47;24.10;42.70
11491;DHT22;5802;52.832;4.758;2023-04-24T07:47:14;24.20;42.70
11491;DHT22;5802;52.832;4.758;2023-04-24T07:49:41;24.20;42.60
11491;DHT22;5802;52.832;4.758;2023-04-24T07:52:08;24.20;42.50
11491;DHT22;5802;52.832;4.758;2023-04-24T07:54:35;24.20;42.50
11491;DHT22;5802;52.832;4.758;2023-04-24T07:57:02;24.20;42.50
11491;DHT22;5802;52.832;4.758;2023-04-24T07:59:30;24.20;42.40
11491;DHT22;5802;52.832;4.758;2023-04-24T08:01:57;24.20;42.40
11491;DHT22;5802;52.832;4.758;2023-04-24T08:04:24;24.20;42.40
11491;DHT22;5802;52.832;4.758;2023-04-24T08:06:50;24.20;43.00
11491;DHT22;5802;52.832;4.758;2023-04-24T08:09:17;24.30;42.30
11491;DHT22;5802;52.832;4.758;2023-04-24T08:11:44;24.30;43.00
11491;DHT22;5802;52.832;4.758;2023-04-24T08:14:10;24.30;42.30
11491;DHT22;5802;52.832;4.758;2023-04-24T08:16:40;24.30;42.20
11491;DHT22;5802;52.832;4.758;2023-04-24T08:19:07;24.30;42.20
11491;DHT22;5802;52.832;4.758;2023-04-24T08:21:33;24.30;42.10
11491;DHT22;5802;52.832;4.758;2023-04-24T08:24:00;24.40;42.10
11491;DHT22;5802;52.832;4.758;2023-04-24T08:26:30;24.40;42.10
11491;DHT22;5802;52.832;4.758;2023-04-24T08:28:57;24.40;42.00
11491;DHT22;5802;52.832;4.758;2023-04-24T08:31:24;24.40;41.90
11491;DHT22;5802;52.832;4.758;2023-04-24T08:33:52;24.40;41.90
11491;DHT22;5802;52.832;4.758;2023-04-24T08:36:19;24.50;41.90
11491;DHT22;5802;52.832;4.758;2023-04-24T08:38:46;24.50;41.80
11491;DHT22;5802;52.832;4.758;2023-04-24T08:41:14;24.50;41.80
11491;DHT22;5802;52.832;4.758;2023-04-24T08:43:41;24.50;41.70
11491;DHT22;5802;52.832;4.758;2023-04-24T08:46:08;24.50;41.70
11491;DHT22;5802;52.832;4.758;2023-04-24T08:48:36;24.50;41.70
11491;DHT22;5802;52.832;4.758;2023-04-24T08:51:07;24.50;41.60
11491;DHT22;5802;52.832;4.758;2023-04-24T08:53:35;24.50;41.60
11491;DHT22;5802;52.832;4.758;2023-04-24T08:56:02;24.50;41.70
11491;DHT22;5802;52.832;4.758;2023-04-24T08:58:29;24.50;41.80
11491;DHT22;5802;52.832;4.758;2023-04-24T09:00:57;24.50;41.80
11491;DHT22;5802;52.832;4.758;2023-04-24T09:03:24;24.50;41.90
11491;DHT22;5802;52.832;4.758;2023-04-24T09:05:54;24.60;42.00
11491;DHT22;5802;52.832;4.758;2023-04-24T09:08:25;24.60;42.00
11491;DHT22;5802;52.832;4.758;2023-04-24T09:10:52;24.60;41.90
11491;DHT22;5802;52.832;4.758;2023-04-24T09:13:19;24.60;41.90
11491;DHT22;5802;52.832;4.758;2023-04-24T09:15:46;24.60;41.80
11491;DHT22;5802;52.832;4.758;2023-04-24T09:18:13;24.70;41.90
11491;DHT22;5802;52.832;4.758;2023-04-24T09:20:57;24.70;41.80
11491;DHT22;5802;52.832;4.758;2023-04-24T09:23:27;24.70;41.60
11491;DHT22;5802;52.832;4.758;2023-04-24T09:25:55;24.70;41.50
11491;DHT22;5802;52.832;4.758;2023-04-24T09:28:25;24.70;41.40
11491;DHT22;5802;52.832;4.758;2023-04-24T09:31:03;24.70;40.60
11491;DHT22;5802;52.832;4.758;2023-04-24T09:33:30;24.70;40.40
11491;DHT22;5802;52.832;4.758;2023-04-24T09:35:57;24.70;40.40
11491;DHT22;5802;52.832;4.758;2023-04-24T09:38:33;24.70;41.30
11491;DHT22;5802;52.832;4.758;2023-04-24T09:41:01;24.70;40.80
11491;DHT22;5802;52.832;4.758;2023-04-24T09:43:29;24.70;40.90
11491;DHT22;5802;52.832;4.758;2023-04-24T09:45:57;24.70;41.00
11491;DHT22;5802;52.832;4.758;2023-04-24T09:48:31;24.70;40.90
11491;DHT22;5802;52.832;4.758;2023-04-24T09:50:58;24.70;40.90
11491;DHT22;5802;52.832;4.758;2023-04-24T09:53:25;24.70;41.00
11491;DHT22;5802;52.832;4.758;2023-04-24T09:55:53;24.70;41.00
11491;DHT22;5802;52.832;4.758;2023-04-24T09:58:24;24.70;41.00
11491;DHT22;5802;52.832;4.758;2023-04-24T10:00:53;24.70;41.00
11491;DHT22;5802;52.832;4.758;2023-04-24T10:03:21;24.70;40.90
11491;DHT22;5802;52.832;4.758;2023-04-24T10:05:51;24.70;40.90
11491;DHT22;5802;52.832;4.758;2023-04-24T10:08:18;24.70;40.90
11491;DHT22;5802;52.832;4.758;2023-04-24T10:10:46;24.70;40.80
11491;DHT22;5802;52.832;4.758;2023-04-24T10:13:14;24.70;40.80
11491;DHT22;5802;52.832;4.758;2023-04-24T10:15:42;24.70;40.90
11491;DHT22;5802;52.832;4.758;2023-04-24T10:18:09;24.70;41.00
11491;DHT22;5802;52.832;4.758;2023-04-24T10:20:37;24.70;41.20
11491;DHT22;5802;52.832;4.758;2023-04-24T10:23:05;24.70;41.30
11491;DHT22;5802;52.832;4.758;2023-04-24T10:25:33;24.70;41.30
11491;DHT22;5802;52.832;4.758;2023-04-24T10:28:01;24.80;41.30
11491;DHT22;5802;52.832;4.758;2023-04-24T10:30:31;24.80;41.30
11491;DHT22;5802;52.832;4.758;2023-04-24T10:33:00;24.80;41.30
11491;DHT22;5802;52.832;4.758;2023-04-24T10:35:31;24.90;41.30
11491;DHT22;5802;52.832;4.758;2023-04-24T10:38:01;24.90;41.30
11491;DHT22;5802;52.832;4.758;2023-04-24T10:40:31;24.90;41.20
11491;DHT22;5802;52.832;4.758;2023-04-24T10:42:58;25.00;41.20
11491;DHT22;5802;52.832;4.758;2023-04-24T10:45:25;25.00;41.10
11491;DHT22;5802;52.832;4.758;2023-04-24T10:47:57;25.10;41.00
11491;DHT22;5802;52.832;4.758;2023-04-24T10:50:26;25.10;40.90
11491;DHT22;5802;52.832;4.758;2023-04-24T10:52:53;25.20;40.90
11491;DHT22;5802;52.832;4.758;2023-04-24T10:55:42;25.20;40.80
11491;DHT22;5802;52.832;4.758;2023-04-24T10:58:10;25.30;40.80
11491;DHT22;5802;52.832;4.758;2023-04-24T11:00:38;25.30;40.80
11491;DHT22;5802;52.832;4.758;2023-04-24T11:03:07;25.30;40.60
11491;DHT22;5802;52.832;4.758;2023-04-24T11:05:56;25.40;40.50
11491;DHT22;5802;52.832;4.758;2023-04-24T11:08:25;25.40;40.60
11491;DHT22;5802;52.832;4.758;2023-04-24T11:11:00;25.40;40.40
11491;DHT22;5802;52.832;4.758;2023-04-24T11:14:00;25.40;40.40
11491;DHT22;5802;52.832;4.758;2023-04-24T11:16:26;25.40;40.30
11491;DHT22;5802;52.832;4.758;2023-04-24T11:19:00;25.40;40.30
11491;DHT22;5802;52.832;4.758;2023-04-24T11:21:31;25.40;40.30
11491;DHT22;5802;52.832;4.758;2023-04-24T11:23:58;25.50;40.30
11491;DHT22;5802;52.832;4.758;2023-04-24T11:26:25;25.40;40.20
11491;DHT22;5802;52.832;4.758;2023-04-24T11:29:06;25.50;40.20
11491;DHT22;5802;52.832;4.758;2023-04-24T11:31:37;25.50;40.20
11491;DHT22;5802;52.832;4.758;2023-04-24T11:34:13;25.50;40.10
11491;DHT22;5802;52.832;4.758;2023-04-24T11:36:43;25.50;40.10
11491;DHT22;5802;52.832;4.758;2023-04-24T11:39:11;25.50;40.00
11491;DHT22;5802;52.832;4.758;2023-04-24T11:41:38;25.50;40.00
11491;DHT22;5802;52.832;4.758;2023-04-24T11:44:08;25.50;40.00
11491;DHT22;5802;52.832;4.758;2023-04-24T11:46:35;25.50;40.00
11491;DHT22;5802;52.832;4.758;2023-04-24T11:49:03;25.60;40.00
11491;DHT22;5802;52.832;4.758;2023-04-24T11:51:32;25.60;39.90
11491;DHT22;5802;52.832;4.758;2023-04-24T11:53:59;25.60;39.80
11491;DHT22;5802;52.832;4.758;2023-04-24T11:56:25;25.60;39.70
11491;DHT22;5802;52.832;4.758;2023-04-24T11:58:52;25.70;39.70
11491;DHT22;5802;52.832;4.758;2023-04-24T12:01:20;25.70;39.60
11491;DHT22;5802;52.832;4.758;2023-04-24T12:03:48;25.80;39.60
11491;DHT22;5802;52.832;4.758;2023-04-24T12:06:16;25.80;39.60
11491;DHT22;5802;52.832;4.758;2023-04-24T12:08:47;25.80;39.50
11491;DHT22;5802;52.832;4.758;2023-04-24T12:11:15;25.80;39.40
11491;DHT22;5802;52.832;4.758;2023-04-24T12:13:43;25.80;39.40
11491;DHT22;5802;52.832;4.758;2023-04-24T12:16:09;25.90;39.40
11491;DHT22;5802;52.832;4.758;2023-04-24T12:18:41;25.90;39.40
11491;DHT22;5802;52.832;4.758;2023-04-24T12:21:18;25.90;39.30
11491;DHT22;5802;52.832;4.758;2023-04-24T12:23:47;25.90;39.30
11491;DHT22;5802;52.832;4.758;2023-04-24T12:26:17;25.90;39.00
11491;DHT22;5802;52.832;4.758;2023-04-24T12:28:47;25.90;38.80
11491;DHT22;5802;52.832;4.758;2023-04-24T12:31:15;25.90;38.70
11491;DHT22;5802;52.832;4.758;2023-04-24T12:33:41;25.90;38.80
11491;DHT22;5802;52.832;4.758;2023-04-24T12:36:10;25.90;38.70
11491;DHT22;5802;52.832;4.758;2023-04-24T12:38:38;25.90;38.80
11491;DHT22;5802;52.832;4.758;2023-04-24T12:41:09;25.80;38.70
11491;DHT22;5802;52.832;4.758;2023-04-24T12:43:36;25.80;38.80
11491;DHT22;5802;52.832;4.758;2023-04-24T12:46:03;25.90;38.80
11491;DHT22;5802;52.832;4.758;2023-04-24T12:48:30;25.90;38.70
11491;DHT22;5802;52.832;4.758;2023-04-24T12:50:57;25.90;38.70
11491;DHT22;5802;52.832;4.758;2023-04-24T12:53:27;26.00;38.70
11491;DHT22;5802;52.832;4.758;2023-04-24T12:55:54;26.00;38.60
11491;DHT22;5802;52.832;4.758;2023-04-24T12:58:22;26.00;38.30
11491;DHT22;5802;52.832;4.758;2023-04-24T13:00:50;26.00;37.50
11491;DHT22;5802;52.832;4.758;2023-04-24T13:03:16;26.00;36.70
11491;DHT22;5802;52.832;4.758;2023-04-24T13:05:43;25.90;36.60
11491;DHT22;5802;52.832;4.758;2023-04-24T13:08:10;25.90;36.90
11491;DHT22;5802;52.832;4.758;2023-04-24T13:10:38;25.90;37.20
11491;DHT22;5802;52.832;4.758;2023-04-24T13:13:05;25.90;37.40
11491;DHT22;5802;52.832;4.758;2023-04-24T13:15:33;25.90;37.60
11491;DHT22;5802;52.832;4.758;2023-04-24T13:18:00;25.80;37.70
11491;DHT22;5802;52.832;4.758;2023-04-24T13:20:27;25.80;38.00
11491;DHT22;5802;52.832;4.758;2023-04-24T13:22:54;25.70;38.10
11491;DHT22;5802;52.832;4.758;2023-04-24T13:25:21;25.70;38.10
11491;DHT22;5802;52.832;4.758;2023-04-24T13:27:48;25.70;38.30
11491;DHT22;5802;52.832;4.758;2023-04-24T13:30:16;25.70;38.40
11491;DHT22;5802;52.832;4.758;2023-04-24T13:32:44;25.70;38.40
11491;DHT22;5802;52.832;4.758;2023-04-24T13:35:11;25.70;38.60
11491;DHT22;5802;52.832;4.758;2023-04-24T13:37:37;25.70;38.50
11491;DHT22;5802;52.832;4.758;2023-04-24T13:40:08;25.70;38.60
11491;DHT22;5802;52.832;4.758;2023-04-24T13:42:35;25.70;38.70
11491;DHT22;5802;52.832;4.758;2023-04-24T13:45:01;25.70;38.70
11491;DHT22;5802;52.832;4.758;2023-04-24T13:47:28;25.60;38.60
11491;DHT22;5802;52.832;4.758;2023-04-24T13:49:56;25.60;38.70
11491;DHT22;5802;52.832;4.758;2023-04-24T13:52:23;25.60;38.70
11491;DHT22;5802;52.832;4.758;2023-04-24T13:54:51;25.60;38.70
11491;DHT22;5802;52.832;4.758;2023-04-24T13:57:17;25.60;38.50
11491;DHT22;5802;52.832;4.758;2023-04-24T13:59:45;25.60;38.50
11491;DHT22;5802;52.832;4.758;2023-04-24T14:02:11;25.60;38.50
11491;DHT22;5802;52.832;4.758;2023-04-24T14:04:38;25.60;38.50
11491;DHT22;5802;52.832;4.758;2023-04-24T14:07:06;25.60;38.40
11491;DHT22;5802;52.832;4.758;2023-04-24T14:09:33;25.60;38.20
11491;DHT22;5802;52.832;4.758;2023-04-24T14:12:00;25.60;37.40
11491;DHT22;5802;52.832;4.758;2023-04-24T14:14:27;25.60;36.90
11491;DHT22;5802;52.832;4.758;2023-04-24T14:16:55;25.60;36.70
11491;DHT22;5802;52.832;4.758;2023-04-24T14:19:21;25.60;36.60
11491;DHT22;5802;52.832;4.758;2023-04-24T14:21:49;25.60;36.60
11491;DHT22;5802;52.832;4.758;2023-04-24T14:24:17;25.50;36.50
11491;DHT22;5802;52.832;4.758;2023-04-24T14:26:43;25.50;36.40
11491;DHT22;5802;52.832;4.758;2023-04-24T14:29:10;25.50;36.30
11491;DHT22;5802;52.832;4.758;2023-04-24T14:31:37;25.50;36.10
11491;DHT22;5802;52.832;4.758;2023-04-24T14:34:04;25.40;36.10
11491;DHT22;5802;52.832;4.758;2023-04-24T14:36:30;25.40;36.10
11491;DHT22;5802;52.832;4.758;2023-04-24T14:38:57;25.40;36.20
11491;DHT22;5802;52.832;4.758;2023-04-24T14:41:25;25.30;36.20
11491;DHT22;5802;52.832;4.758;2023-04-24T14:43:52;25.30;36.30
11491;DHT22;5802;52.832;4.758;2023-04-24T14:46:19;25.30;36.30
11491;DHT22;5802;52.832;4.758;2023-04-24T14:48:46;25.20;36.30
11491;DHT22;5802;52.832;4.758;2023-04-24T14:51:12;25.20;36.50
11491;DHT22;5802;52.832;4.758;2023-04-24T14:53:39;25.20;36.60
11491;DHT22;5802;52.832;4.758;2023-04-24T14:56:06;25.10;36.50
11491;DHT22;5802;52.832;4.758;2023-04-24T14:58:34;25.10;36.70
11491;DHT22;5802;52.832;4.758;2023-04-24T15:01:01;25.10;36.90
11491;DHT22;5802;52.832;4.758;2023-04-24T15:03:27;25.10;37.10
11491;DHT22;5802;52.832;4.758;2023-04-24T15:05:54;25.10;37.30
11491;DHT22;5802;52.832;4.758;2023-04-24T15:08:21;25.00;37.30
11491;DHT22;5802;52.832;4.758;2023-04-24T15:10:48;25.00;37.50
11491;DHT22;5802;52.832;4.758;2023-04-24T15:13:15;25.00;37.60
11491;DHT22;5802;52.832;4.758;2023-04-24T15:15:43;25.00;37.70
11491;DHT22;5802;52.832;4.758;2023-04-24T15:18:10;25.00;37.90
11491;DHT22;5802;52.832;4.758;2023-04-24T15:20:37;25.00;38.10
11491;DHT22;5802;52.832;4.758;2023-04-24T15:23:05;24.90;38.10
11491;DHT22;5802;52.832;4.758;2023-04-24T15:25:31;24.90;38.20
11491;DHT22;5802;52.832;4.758;2023-04-24T15:27:58;24.90;38.30
11491;DHT22;5802;52.832;4.758;2023-04-24T15:30:25;24.90;38.40
11491;DHT22;5802;52.832;4.758;2023-04-24T15:32:53;24.90;38.50
11491;DHT22;5802;52.832;4.758;2023-04-24T15:35:20;24.90;38.50
11491;DHT22;5802;52.832;4.758;2023-04-24T15:37:47;24.80;39.20
11491;DHT22;5802;52.832;4.758;2023-04-24T15:40:13;24.80;38.60
11491;DHT22;5802;52.832;4.758;2023-04-24T15:42:42;24.80;38.70
11491;DHT22;5802;52.832;4.758;2023-04-24T15:45:10;24.80;38.70
11491;DHT22;5802;52.832;4.758;2023-04-24T15:47:37;24.80;38.90